Saint Simons Island, Georgia
Current Conditions -  °F | °C
As of 1:53 PM on Monday 20 Oct 2014 (Local Time) from KSSI Reporting Station
Broken Clouds Broken Clouds  
Wind Chill: 75°   Ceiling: 4500
Heat Index: 75°   Visibility: 10mi
Dew Point: 60°   Wind: 8mph
Humidity: 60%   Direction: 130°SE
Pressure: 30.04"   Gusts: NA
Location:  31.15°N, 81.38°W
Report Text: KSSI 201753Z AUTO 13007KT 10SM BKN045 BKN060 24/16 A3004 RMK AO2 SLP171 T02390156 10250 20128 58023
Loading
Personal Weather Stations






























Interactive Weather Map
Tropical Storm Tracking
New forecast layout! Learn more

10-Day Weather Forecast

Advertisements
Track Severe Weather on mobile